Pagina principală
METAR-TAF:

METAR-TAF

Aeroporturi :

Regional_Airport

Clinton, Oklahoma, Statele Unite ale Americii

Latitudine: 35-32-17N, longitudine: 098-55-17W, elevație: 492 m

Observații meteo curente

Raportul a fost făcut în urmă cu 36 de minute, la 23:15 UTC
Vânt 12 kt de la Sud-est
Temperatură 27°C
Umiditate 30%
Presiune 1018 hPa
Vizibilitate: 16.1 km
Cer senin

METAR: KCLK 282315Z AUTO 13012KT 10SM CLR 27/08 A3005 RMK AO2

Ora: 18:51 (23:51 UTC)


TAF: lipsă

Observații și prognoze meteo pentru peste 4.000 de aeroporturi (rapoarte METAR și TAF).

Stațiile disponibile sunt reprezentate pe hartă prin puncte galbene și roșii.

Țineți indicatorul mouse-ului pe punctul dorit pentru a vedea denumirea stației.

Apoi, faceți clic pentru a vedea observațiile și prognozele meteorologice.

Pentru a schimba harta: Pentru mărire, faceți clic pe butoanele verzi cu cruce neagră; pentru micșorare, pe butonul verde cu o liniuță; pentru hărți învecinate, pe săgețile verzi.


METAR-TAF: